sensor_id;sensor_type;location;lat;lon;timestamp;pressure;altitude;pressure_sealevel;temperature;humidity
62418;BME280;48456;54.242;10.280;2023-01-06T00:02:24;101605.75;;;3.48;100.00
62418;BME280;48456;54.242;10.280;2023-01-06T00:04:51;101597.56;;;3.39;100.00
62418;BME280;48456;54.242;10.280;2023-01-06T00:07:17;101601.78;;;3.35;100.00
62418;BME280;48456;54.242;10.280;2023-01-06T00:09:43;101598.16;;;3.32;100.00
62418;BME280;48456;54.242;10.280;2023-01-06T00:12:10;101603.34;;;3.30;100.00
62418;BME280;48456;54.242;10.280;2023-01-06T00:14:36;101586.63;;;3.27;100.00
62418;BME280;48456;54.242;10.280;2023-01-06T00:17:02;101583.06;;;3.24;100.00
62418;BME280;48456;54.242;10.280;2023-01-06T00:19:28;101581.25;;;3.23;100.00
62418;BME280;48456;54.242;10.280;2023-01-06T00:21:55;101564.69;;;3.23;100.00
62418;BME280;48456;54.242;10.280;2023-01-06T00:24:21;101572.63;;;3.24;100.00
62418;BME280;48456;54.242;10.280;2023-01-06T00:26:47;101561.19;;;3.22;100.00
62418;BME280;48456;54.242;10.280;2023-01-06T00:29:14;101559.47;;;3.23;100.00
62418;BME280;48456;54.242;10.280;2023-01-06T00:31:40;101548.25;;;3.25;100.00
62418;BME280;48456;54.242;10.280;2023-01-06T00:34:06;101541.28;;;3.26;100.00
62418;BME280;48456;54.242;10.280;2023-01-06T00:36:34;101547.41;;;3.27;100.00
62418;BME280;48456;54.242;10.280;2023-01-06T00:39:01;101539.63;;;3.28;100.00
62418;BME280;48456;54.242;10.280;2023-01-06T00:41:27;101546.63;;;3.29;100.00
62418;BME280;48456;54.242;10.280;2023-01-06T00:44:11;101531.97;;;3.33;100.00
62418;BME280;48456;54.242;10.280;2023-01-06T00:46:38;101529.44;;;3.36;100.00
62418;BME280;48456;54.242;10.280;2023-01-06T00:49:04;101518.19;;;3.38;100.00
62418;BME280;48456;54.242;10.280;2023-01-06T00:51:36;101524.31;;;3.39;100.00
62418;BME280;48456;54.242;10.280;2023-01-06T00:54:03;101519.09;;;3.39;100.00
62418;BME280;48456;54.242;10.280;2023-01-06T00:56:30;101515.63;;;3.40;100.00
62418;BME280;48456;54.242;10.280;2023-01-06T00:58:57;101510.47;;;3.42;100.00
62418;BME280;48456;54.242;10.280;2023-01-06T01:01:23;101513.97;;;3.42;100.00
62418;BME280;48456;54.242;10.280;2023-01-06T01:03:49;101514.97;;;3.46;100.00
62418;BME280;48456;54.242;10.280;2023-01-06T01:06:16;101509.81;;;3.47;100.00
62418;BME280;48456;54.242;10.280;2023-01-06T01:08:42;101499.34;;;3.47;100.00
62418;BME280;48456;54.242;10.280;2023-01-06T01:11:09;101500.31;;;3.49;100.00
62418;BME280;48456;54.242;10.280;2023-01-06T01:13:56;101487.16;;;3.48;100.00
62418;BME280;48456;54.242;10.280;2023-01-06T01:16:22;101490.75;;;3.51;100.00
62418;BME280;48456;54.242;10.280;2023-01-06T01:18:48;101486.53;;;3.55;100.00
62418;BME280;48456;54.242;10.280;2023-01-06T01:21:18;101483.97;;;3.57;100.00
62418;BME280;48456;54.242;10.280;2023-01-06T01:23:44;101487.53;;;3.59;100.00
62418;BME280;48456;54.242;10.280;2023-01-06T01:26:10;101484.09;;;3.60;100.00
62418;BME280;48456;54.242;10.280;2023-01-06T01:28:36;101487.63;;;3.62;100.00
62418;BME280;48456;54.242;10.280;2023-01-06T01:31:03;101478.13;;;3.64;100.00
62418;BME280;48456;54.242;10.280;2023-01-06T01:33:30;101480.78;;;3.66;100.00
62418;BME280;48456;54.242;10.280;2023-01-06T01:35:56;101474.78;;;3.68;100.00
62418;BME280;48456;54.242;10.280;2023-01-06T01:38:25;101464.44;;;3.71;100.00
62418;BME280;48456;54.242;10.280;2023-01-06T01:40:52;101461.03;;;3.74;100.00
62418;BME280;48456;54.242;10.280;2023-01-06T01:43:18;101466.31;;;3.75;100.00
62418;BME280;48456;54.242;10.280;2023-01-06T01:45:45;101465.59;;;3.80;100.00
62418;BME280;48456;54.242;10.280;2023-01-06T01:48:16;101459.50;;;3.81;100.00
62418;BME280;48456;54.242;10.280;2023-01-06T01:50:49;101453.41;;;3.82;100.00
62418;BME280;48456;54.242;10.280;2023-01-06T01:53:20;101452.63;;;3.84;100.00
62418;BME280;48456;54.242;10.280;2023-01-06T01:55:48;101449.28;;;3.88;100.00
62418;BME280;48456;54.242;10.280;2023-01-06T01:58:19;101444.16;;;3.92;100.00
62418;BME280;48456;54.242;10.280;2023-01-06T02:00:46;101444.22;;;3.93;100.00
62418;BME280;48456;54.242;10.280;2023-01-06T02:03:13;101446.09;;;3.97;100.00
62418;BME280;48456;54.242;10.280;2023-01-06T02:05:43;101431.31;;;3.99;100.00
62418;BME280;48456;54.242;10.280;2023-01-06T02:08:28;101426.19;;;4.02;100.00
62418;BME280;48456;54.242;10.280;2023-01-06T02:10:56;101421.88;;;4.05;100.00
62418;BME280;48456;54.242;10.280;2023-01-06T02:13:23;101428.13;;;4.08;100.00
62418;BME280;48456;54.242;10.280;2023-01-06T02:15:49;101412.47;;;4.10;100.00
62418;BME280;48456;54.242;10.280;2023-01-06T02:21:15;101406.50;;;4.14;100.00
62418;BME280;48456;54.242;10.280;2023-01-06T02:23:49;101401.25;;;4.14;100.00
62418;BME280;48456;54.242;10.280;2023-01-06T02:41:42;101367.50;;;4.23;100.00
62418;BME280;48456;54.242;10.280;2023-01-06T02:44:28;101356.16;;;4.24;100.00
62418;BME280;48456;54.242;10.280;2023-01-06T02:57:52;101336.22;;;4.29;100.00
62418;BME280;48456;54.242;10.280;2023-01-06T03:02:57;101332.81;;;4.31;100.00
62418;BME280;48456;54.242;10.280;2023-01-06T03:05:25;101338.06;;;4.32;100.00
62418;BME280;48456;54.242;10.280;2023-01-06T03:07:53;101326.81;;;4.35;100.00
62418;BME280;48456;54.242;10.280;2023-01-06T03:10:21;101330.31;;;4.35;100.00
62418;BME280;48456;54.242;10.280;2023-01-06T03:13:50;101327.72;;;4.37;100.00
62418;BME280;48456;54.242;10.280;2023-01-06T03:15:43;101318.22;;;4.40;100.00
62418;BME280;48456;54.242;10.280;2023-01-06T03:18:10;101307.78;;;4.42;100.00
62418;BME280;48456;54.242;10.280;2023-01-06T03:20:36;101303.44;;;4.42;100.00
62418;BME280;48456;54.242;10.280;2023-01-06T03:23:02;101304.41;;;4.46;100.00
62418;BME280;48456;54.242;10.280;2023-01-06T03:25:29;101307.97;;;4.48;100.00
62418;BME280;48456;54.242;10.280;2023-01-06T03:27:55;101300.19;;;4.51;100.00
62418;BME280;48456;54.242;10.280;2023-01-06T03:30:22;101295.94;;;4.55;100.00
62418;BME280;48456;54.242;10.280;2023-01-06T03:35:24;101280.34;;;4.60;100.00
62418;BME280;48456;54.242;10.280;2023-01-06T03:50:49;101252.00;;;4.77;100.00
62418;BME280;48456;54.242;10.280;2023-01-06T03:53:21;101256.41;;;4.79;100.00
62418;BME280;48456;54.242;10.280;2023-01-06T03:55:52;101250.38;;;4.82;100.00
62418;BME280;48456;54.242;10.280;2023-01-06T03:58:22;101246.94;;;4.85;100.00
62418;BME280;48456;54.242;10.280;2023-01-06T04:00:49;101246.97;;;4.86;100.00
62418;BME280;48456;54.242;10.280;2023-01-06T04:03:16;101240.03;;;4.87;100.00
62418;BME280;48456;54.242;10.280;2023-01-06T04:05:43;101233.91;;;4.88;100.00
62418;BME280;48456;54.242;10.280;2023-01-06T04:08:09;101229.56;;;4.88;100.00
62418;BME280;48456;54.242;10.280;2023-01-06T04:10:35;101225.19;;;4.89;100.00
62418;BME280;48456;54.242;10.280;2023-01-06T04:13:02;101224.34;;;4.90;100.00
62418;BME280;48456;54.242;10.280;2023-01-06T04:15:28;101227.00;;;4.91;100.00
62418;BME280;48456;54.242;10.280;2023-01-06T04:17:54;101223.53;;;4.91;100.00
62418;BME280;48456;54.242;10.280;2023-01-06T04:20:22;101215.69;;;4.92;100.00
62418;BME280;48456;54.242;10.280;2023-01-06T04:22:49;101203.41;;;4.91;100.00
62418;BME280;48456;54.242;10.280;2023-01-06T04:25:17;101199.97;;;4.94;100.00
62418;BME280;48456;54.242;10.280;2023-01-06T04:27:43;101207.03;;;4.95;100.00
62418;BME280;48456;54.242;10.280;2023-01-06T04:30:10;101203.59;;;4.98;100.00
62418;BME280;48456;54.242;10.280;2023-01-06T04:32:36;101194.88;;;4.99;100.00
62418;BME280;48456;54.242;10.280;2023-01-06T04:35:03;101175.66;;;5.00;100.00
62418;BME280;48456;54.242;10.280;2023-01-06T04:37:29;101172.16;;;4.99;100.00
62418;BME280;48456;54.242;10.280;2023-01-06T04:39:55;101176.59;;;5.02;100.00
62418;BME280;48456;54.242;10.280;2023-01-06T04:42:22;101182.75;;;5.04;100.00
62418;BME280;48456;54.242;10.280;2023-01-06T04:44:48;101169.69;;;5.05;100.00
62418;BME280;48456;54.242;10.280;2023-01-06T04:47:14;101161.84;;;5.07;100.00
62418;BME280;48456;54.242;10.280;2023-01-06T04:49:41;101160.19;;;5.09;100.00
62418;BME280;48456;54.242;10.280;2023-01-06T04:52:07;101155.84;;;5.11;100.00
62418;BME280;48456;54.242;10.280;2023-01-06T04:54:34;101151.50;;;5.13;100.00
62418;BME280;48456;54.242;10.280;2023-01-06T04:57:00;101155.09;;;5.17;100.00
62418;BME280;48456;54.242;10.280;2023-01-06T04:59:27;101147.28;;;5.18;100.00
62418;BME280;48456;54.242;10.280;2023-01-06T05:01:53;101142.06;;;5.20;100.00
62418;BME280;48456;54.242;10.280;2023-01-06T05:04:19;101133.38;;;5.23;100.00
62418;BME280;48456;54.242;10.280;2023-01-06T05:06:46;101126.41;;;5.25;100.00
62418;BME280;48456;54.242;10.280;2023-01-06T05:09:12;101119.44;;;5.25;100.00
62418;BME280;48456;54.242;10.280;2023-01-06T05:11:38;101120.34;;;5.27;100.00
62418;BME280;48456;54.242;10.280;2023-01-06T05:14:05;101118.66;;;5.29;100.00
62418;BME280;48456;54.242;10.280;2023-01-06T05:16:32;101111.69;;;5.31;100.00
62418;BME280;48456;54.242;10.280;2023-01-06T05:18:59;101109.97;;;5.32;100.00
62418;BME280;48456;54.242;10.280;2023-01-06T05:21:27;101115.31;;;5.35;100.00
62418;BME280;48456;54.242;10.280;2023-01-06T05:23:56;101104.81;;;5.37;100.00
62418;BME280;48456;54.242;10.280;2023-01-06T05:26:23;101100.50;;;5.39;100.00
62418;BME280;48456;54.242;10.280;2023-01-06T05:28:50;101094.44;;;5.41;100.00
62418;BME280;48456;54.242;10.280;2023-01-06T05:31:16;101092.75;;;5.43;100.00
62418;BME280;48456;54.242;10.280;2023-01-06T05:33:43;101084.06;;;5.46;100.00
62418;BME280;48456;54.242;10.280;2023-01-06T05:36:10;101079.72;;;5.48;100.00
62418;BME280;48456;54.242;10.280;2023-01-06T05:38:37;101078.84;;;5.49;100.00
62418;BME280;48456;54.242;10.280;2023-01-06T05:41:03;101075.44;;;5.52;100.00
62418;BME280;48456;54.242;10.280;2023-01-06T05:43:31;101079.00;;;5.55;100.00
62418;BME280;48456;54.242;10.280;2023-01-06T05:45:57;101073.78;;;5.57;100.00
62418;BME280;48456;54.242;10.280;2023-01-06T05:48:26;101075.56;;;5.59;100.00
62418;BME280;48456;54.242;10.280;2023-01-06T05:50:58;101072.13;;;5.62;100.00
62418;BME280;48456;54.242;10.280;2023-01-06T05:53:25;101082.69;;;5.65;100.00
62418;BME280;48456;54.242;10.280;2023-01-06T05:55:51;101075.72;;;5.67;100.00
62418;BME280;48456;54.242;10.280;2023-01-06T05:58:17;101078.41;;;5.70;100.00
62418;BME280;48456;54.242;10.280;2023-01-06T06:00:44;101076.72;;;5.74;100.00
62418;BME280;48456;54.242;10.280;2023-01-06T06:03:10;101071.56;;;5.77;100.00
62418;BME280;48456;54.242;10.280;2023-01-06T06:05:36;101063.75;;;5.80;100.00
62418;BME280;48456;54.242;10.280;2023-01-06T06:08:03;101058.56;;;5.85;100.00
62418;BME280;48456;54.242;10.280;2023-01-06T06:10:29;101052.50;;;5.89;100.00
62418;BME280;48456;54.242;10.280;2023-01-06T06:12:55;101054.38;;;5.95;100.00
62418;BME280;48456;54.242;10.280;2023-01-06T06:15:21;101050.09;;;5.98;100.00
62418;BME280;48456;54.242;10.280;2023-01-06T06:17:48;101043.13;;;6.02;100.00
62418;BME280;48456;54.242;10.280;2023-01-06T06:20:14;101044.97;;;6.05;100.00
62418;BME280;48456;54.242;10.280;2023-01-06T06:22:40;101042.44;;;6.09;100.00
62418;BME280;48456;54.242;10.280;2023-01-06T06:25:07;101034.59;;;6.13;100.00
62418;BME280;48456;54.242;10.280;2023-01-06T06:27:33;101029.38;;;6.14;100.00
62418;BME280;48456;54.242;10.280;2023-01-06T06:29:59;101028.56;;;6.18;100.00
62418;BME280;48456;54.242;10.280;2023-01-06T06:32:28;101039.16;;;6.23;100.00
62418;BME280;48456;54.242;10.280;2023-01-06T06:34:54;101041.84;;;6.28;100.00
62418;BME280;48456;54.242;10.280;2023-01-06T06:37:21;101030.56;;;6.33;100.00
62418;BME280;48456;54.242;10.280;2023-01-06T06:39:47;101022.72;;;6.35;100.00
62418;BME280;48456;54.242;10.280;2023-01-06T06:42:13;101029.81;;;6.41;100.00
62418;BME280;48456;54.242;10.280;2023-01-06T06:44:39;101029.03;;;6.46;100.00
62418;BME280;48456;54.242;10.280;2023-01-06T06:47:06;101022.94;;;6.49;100.00
62418;BME280;48456;54.242;10.280;2023-01-06T06:49:32;101015.13;;;6.52;100.00
62418;BME280;48456;54.242;10.280;2023-01-06T06:51:58;101026.56;;;6.56;100.00
62418;BME280;48456;54.242;10.280;2023-01-06T06:54:25;101015.28;;;6.63;100.00
62418;BME280;48456;54.242;10.280;2023-01-06T06:56:51;101020.59;;;6.68;100.00
62418;BME280;48456;54.242;10.280;2023-01-06T06:59:17;101013.66;;;6.71;100.00
62418;BME280;48456;54.242;10.280;2023-01-06T07:01:43;101014.59;;;6.76;100.00
62418;BME280;48456;54.242;10.280;2023-01-06T07:04:10;101008.56;;;6.82;100.00
62418;BME280;48456;54.242;10.280;2023-01-06T07:06:36;100998.97;;;6.87;100.00
62418;BME280;48456;54.242;10.280;2023-01-06T07:09:03;101000.81;;;6.93;100.00
62418;BME280;48456;54.242;10.280;2023-01-06T07:11:29;100985.09;;;6.98;100.00
62418;BME280;48456;54.242;10.280;2023-01-06T07:13:55;100983.38;;;7.00;100.00
62418;BME280;48456;54.242;10.280;2023-01-06T07:16:21;100965.00;;;7.03;100.00
62418;BME280;48456;54.242;10.280;2023-01-06T07:18:50;100957.19;;;7.09;100.00
62418;BME280;48456;54.242;10.280;2023-01-06T07:21:16;100955.44;;;7.10;100.00
62418;BME280;48456;54.242;10.280;2023-01-06T07:23:42;100956.34;;;7.13;100.00
62418;BME280;48456;54.242;10.280;2023-01-06T07:26:09;100944.13;;;7.17;100.00
62418;BME280;48456;54.242;10.280;2023-01-06T07:28:36;100945.06;;;7.21;100.00
62418;BME280;48456;54.242;10.280;2023-01-06T07:31:03;100948.59;;;7.24;100.00
62418;BME280;48456;54.242;10.280;2023-01-06T07:33:29;100946.03;;;7.29;100.00
62418;BME280;48456;54.242;10.280;2023-01-06T07:35:55;100949.53;;;7.30;100.00
62418;BME280;48456;54.242;10.280;2023-01-06T07:38:22;100942.53;;;7.30;100.00
62418;BME280;48456;54.242;10.280;2023-01-06T07:40:49;100936.41;;;7.31;100.00
62418;BME280;48456;54.242;10.280;2023-01-06T07:43:15;100932.03;;;7.35;100.00
62418;BME280;48456;54.242;10.280;2023-01-06T07:45:45;100933.84;;;7.39;100.00
62418;BME280;48456;54.242;10.280;2023-01-06T07:48:12;100931.19;;;7.39;100.00
62418;BME280;48456;54.242;10.280;2023-01-06T07:50:38;100929.47;;;7.39;100.00
62418;BME280;48456;54.242;10.280;2023-01-06T07:53:05;100931.22;;;7.40;100.00
62418;BME280;48456;54.242;10.280;2023-01-06T07:55:33;100931.25;;;7.44;100.00
62418;BME280;48456;54.242;10.280;2023-01-06T07:58:02;100919.03;;;7.46;100.00
62418;BME280;48456;54.242;10.280;2023-01-06T08:00:28;100910.25;;;7.47;100.00
62418;BME280;48456;54.242;10.280;2023-01-06T08:02:55;100910.25;;;7.47;100.00
62418;BME280;48456;54.242;10.280;2023-01-06T08:05:21;100920.78;;;7.47;100.00
62418;BME280;48456;54.242;10.280;2023-01-06T08:07:47;100903.22;;;7.47;100.00
62418;BME280;48456;54.242;10.280;2023-01-06T08:10:14;100899.72;;;7.47;100.00
62418;BME280;48456;54.242;10.280;2023-01-06T08:12:40;100903.22;;;7.46;100.00
62418;BME280;48456;54.242;10.280;2023-01-06T08:15:07;100903.22;;;7.47;100.00
62418;BME280;48456;54.242;10.280;2023-01-06T08:17:33;100903.22;;;7.47;100.00
62418;BME280;48456;54.242;10.280;2023-01-06T08:19:59;101007.59;;;7.44;100.00
62418;BME280;48456;54.242;10.280;2023-01-06T08:22:26;101028.69;;;7.45;100.00
62418;BME280;48456;54.242;10.280;2023-01-06T08:24:52;101042.72;;;7.44;100.00
62418;BME280;48456;54.242;10.280;2023-01-06T08:27:18;101067.25;;;7.45;100.00
62418;BME280;48456;54.242;10.280;2023-01-06T08:29:45;101082.19;;;7.44;100.00
62418;BME280;48456;54.242;10.280;2023-01-06T08:32:12;101092.75;;;7.46;100.00
62418;BME280;48456;54.242;10.280;2023-01-06T08:34:39;101117.28;;;7.45;100.00
62418;BME280;48456;54.242;10.280;2023-01-06T08:37:05;101127.81;;;7.46;100.00
62418;BME280;48456;54.242;10.280;2023-01-06T08:39:31;101135.72;;;7.46;100.00
62418;BME280;48456;54.242;10.280;2023-01-06T08:41:58;101155.91;;;7.47;100.00
62418;BME280;48456;54.242;10.280;2023-01-06T08:44:24;101179.63;;;7.49;100.00
62418;BME280;48456;54.242;10.280;2023-01-06T08:46:50;101191.06;;;7.49;100.00
62418;BME280;48456;54.242;10.280;2023-01-06T08:49:17;101202.47;;;7.50;100.00
62418;BME280;48456;54.242;10.280;2023-01-06T08:51:43;101226.16;;;7.51;100.00
62418;BME280;48456;54.242;10.280;2023-01-06T08:54:09;101234.06;;;7.51;100.00
62418;BME280;48456;54.242;10.280;2023-01-06T08:56:35;101245.47;;;7.50;100.00
62418;BME280;48456;54.242;10.280;2023-01-06T08:59:04;101263.94;;;7.52;100.00
62418;BME280;48456;54.242;10.280;2023-01-06T09:01:31;101277.13;;;7.53;100.00
62418;BME280;48456;54.242;10.280;2023-01-06T09:03:59;101293.81;;;7.54;100.00
62418;BME280;48456;54.242;10.280;2023-01-06T09:06:25;101305.22;;;7.54;100.00
62418;BME280;48456;54.242;10.280;2023-01-06T09:08:52;101326.28;;;7.54;100.00
62418;BME280;48456;54.242;10.280;2023-01-06T09:11:18;101333.31;;;7.56;100.00
62418;BME280;48456;54.242;10.280;2023-01-06T09:13:45;101329.78;;;7.53;100.00
62418;BME280;48456;54.242;10.280;2023-01-06T09:16:12;101346.47;;;7.56;100.00
62418;BME280;48456;54.242;10.280;2023-01-06T09:18:38;101359.66;;;7.57;100.00
62418;BME280;48456;54.242;10.280;2023-01-06T09:21:05;101374.59;;;7.57;100.00
62418;BME280;48456;54.242;10.280;2023-01-06T09:23:31;101379.00;;;7.58;100.00
62418;BME280;48456;54.242;10.280;2023-01-06T09:25:58;101389.53;;;7.58;100.00
62418;BME280;48456;54.242;10.280;2023-01-06T09:28:24;101393.91;;;7.59;100.00
62418;BME280;48456;54.242;10.280;2023-01-06T09:30:50;101404.44;;;7.59;100.00
62418;BME280;48456;54.242;10.280;2023-01-06T09:33:17;101386.91;;;7.59;100.00
62418;BME280;48456;54.242;10.280;2023-01-06T09:35:44;101385.16;;;7.60;100.00
62418;BME280;48456;54.242;10.280;2023-01-06T09:38:10;101377.22;;;7.58;100.00
62418;BME280;48456;54.242;10.280;2023-01-06T09:45:55;101382.47;;;7.58;100.00
62418;BME280;48456;54.242;10.280;2023-01-06T09:48:26;101392.19;;;7.59;100.00
62418;BME280;48456;54.242;10.280;2023-01-06T09:50:54;101391.31;;;7.60;100.00
62418;BME280;48456;54.242;10.280;2023-01-06T09:53:28;101384.28;;;7.59;100.00
62418;BME280;48456;54.242;10.280;2023-01-06T09:55:57;101378.16;;;7.60;100.00
62418;BME280;48456;54.242;10.280;2023-01-06T10:00:55;101386.91;;;7.59;100.00
62418;BME280;48456;54.242;10.280;2023-01-06T10:03:23;101354.25;;;7.48;100.00
62418;BME280;48456;54.242;10.280;2023-01-06T10:11:34;101388.63;;;7.57;100.00
62418;BME280;48456;54.242;10.280;2023-01-06T10:14:15;101394.72;;;7.54;100.00
62418;BME280;48456;54.242;10.280;2023-01-06T10:24:37;101406.13;;;7.53;100.00
62418;BME280;48456;54.242;10.280;2023-01-06T10:29:50;101440.50;;;7.63;100.00
62418;BME280;48456;54.242;10.280;2023-01-06T10:32:17;101425.44;;;7.56;100.00
62418;BME280;48456;54.242;10.280;2023-01-06T10:34:45;101429.00;;;7.58;100.00
62418;BME280;48456;54.242;10.280;2023-01-06T10:39:39;101429.78;;;7.52;100.00
62418;BME280;48456;54.242;10.280;2023-01-06T10:44:59;101451.78;;;7.56;100.00
62418;BME280;48456;54.242;10.280;2023-01-06T10:47:29;101435.91;;;7.51;100.00
62418;BME280;48456;54.242;10.280;2023-01-06T10:49:55;101400.53;;;7.36;100.00
62418;BME280;48456;54.242;10.280;2023-01-06T10:52:22;101354.59;;;7.19;100.00
62418;BME280;48456;54.242;10.280;2023-01-06T10:54:51;101327.25;;;7.10;100.00
62418;BME280;48456;54.242;10.280;2023-01-06T10:57:21;101308.72;;;7.02;100.00
62418;BME280;48456;54.242;10.280;2023-01-06T11:00:07;101312.19;;;7.01;100.00
62418;BME280;48456;54.242;10.280;2023-01-06T11:02:33;101306.88;;;6.98;100.00
62418;BME280;48456;54.242;10.280;2023-01-06T11:05:00;101304.22;;;6.97;100.00
62418;BME280;48456;54.242;10.280;2023-01-06T11:07:27;101308.56;;;6.95;100.00
62418;BME280;48456;54.242;10.280;2023-01-06T11:09:54;101292.72;;;6.92;100.00
62418;BME280;48456;54.242;10.280;2023-01-06T11:12:22;101260.00;;;6.77;100.00
62418;BME280;48456;54.242;10.280;2023-01-06T11:14:54;101275.84;;;6.80;100.00
62418;BME280;48456;54.242;10.280;2023-01-06T11:17:22;101269.63;;;6.75;100.00
62418;BME280;48456;54.242;10.280;2023-01-06T11:22:41;101283.69;;;6.79;100.00
62418;BME280;48456;54.242;10.280;2023-01-06T11:27:46;101324.19;;;6.87;100.00
62418;BME280;48456;54.242;10.280;2023-01-06T11:30:20;101300.38;;;6.79;100.00
62418;BME280;48456;54.242;10.280;2023-01-06T11:32:50;101271.19;;;6.65;100.00
62418;BME280;48456;54.242;10.280;2023-01-06T11:35:21;101274.69;;;6.64;100.00
62418;BME280;48456;54.242;10.280;2023-01-06T11:37:57;101285.22;;;6.66;100.00
62418;BME280;48456;54.242;10.280;2023-01-06T11:40:31;101290.44;;;6.64;100.00
62418;BME280;48456;54.242;10.280;2023-01-06T11:42:59;101255.16;;;6.53;100.00
62418;BME280;48456;54.242;10.280;2023-01-06T11:45:31;101247.25;;;6.51;100.00
62418;BME280;48456;54.242;10.280;2023-01-06T11:48:00;101241.81;;;6.42;100.00
62418;BME280;48456;54.242;10.280;2023-01-06T11:50:27;101258.53;;;6.45;100.00
62418;BME280;48456;54.242;10.280;2023-01-06T11:52:58;101259.38;;;6.44;100.00
62418;BME280;48456;54.242;10.280;2023-01-06T11:55:24;101272.59;;;6.47;100.00
62418;BME280;48456;54.242;10.280;2023-01-06T11:58:09;101279.59;;;6.47;100.00
62418;BME280;48456;54.242;10.280;2023-01-06T12:00:41;101304.25;;;6.54;100.00
62418;BME280;48456;54.242;10.280;2023-01-06T12:05:39;101338.66;;;6.65;100.00
62418;BME280;48456;54.242;10.280;2023-01-06T12:08:13;101359.81;;;6.71;100.00
62418;BME280;48456;54.242;10.280;2023-01-06T12:10:41;101357.13;;;6.68;100.00
62418;BME280;48456;54.242;10.280;2023-01-06T12:13:10;101372.09;;;6.72;100.00
62418;BME280;48456;54.242;10.280;2023-01-06T12:15:37;101366.75;;;6.67;100.00
62418;BME280;48456;54.242;10.280;2023-01-06T12:18:09;101390.47;;;6.70;100.00
62418;BME280;48456;54.242;10.280;2023-01-06T12:20:38;101401.88;;;6.71;100.00
62418;BME280;48456;54.242;10.280;2023-01-06T12:23:08;101393.91;;;6.68;100.00
62418;BME280;48456;54.242;10.280;2023-01-06T12:25:38;101384.19;;;6.63;100.00
62418;BME280;48456;54.242;10.280;2023-01-06T12:30:38;101359.41;;;6.50;100.00
62418;BME280;48456;54.242;10.280;2023-01-06T12:33:09;101387.59;;;6.59;100.00
62418;BME280;48456;54.242;10.280;2023-01-06T12:35:38;101396.34;;;6.58;100.00
62418;BME280;48456;54.242;10.280;2023-01-06T12:38:13;101385.81;;;6.57;100.00
62418;BME280;48456;54.242;10.280;2023-01-06T12:41:03;101393.69;;;6.57;100.00
62418;BME280;48456;54.242;10.280;2023-01-06T12:43:29;101390.09;;;6.52;100.00
62418;BME280;48456;54.242;10.280;2023-01-06T12:45:57;101051.91;;;6.52;100.00
62418;BME280;48456;54.242;10.280;2023-01-06T12:53:43;101060.81;;;6.62;100.00
62418;BME280;48456;54.242;10.280;2023-01-06T12:56:17;101057.34;;;6.63;100.00
62418;BME280;48456;54.242;10.280;2023-01-06T12:58:53;101068.69;;;6.60;100.00
62418;BME280;48456;54.242;10.280;2023-01-06T13:06:35;101091.19;;;6.44;100.00
62418;BME280;48456;54.242;10.280;2023-01-06T13:14:23;101119.31;;;6.50;100.00
62418;BME280;48456;54.242;10.280;2023-01-06T13:21:45;101129.16;;;6.60;100.00
62418;BME280;48456;54.242;10.280;2023-01-06T13:24:22;101132.59;;;6.56;100.00
62418;BME280;48456;54.242;10.280;2023-01-06T13:29:45;101128.03;;;6.47;100.00
62418;BME280;48456;54.242;10.280;2023-01-06T13:34:56;101149.84;;;6.42;100.00
62418;BME280;48456;54.242;10.280;2023-01-06T13:40:16;101148.91;;;6.38;100.00
62418;BME280;48456;54.242;10.280;2023-01-06T13:45:12;101162.88;;;6.35;100.00
62418;BME280;48456;54.242;10.280;2023-01-06T13:47:40;101161.94;;;6.33;100.00
62418;BME280;48456;54.242;10.280;2023-01-06T13:50:09;101159.38;;;6.36;100.00
62418;BME280;48456;54.242;10.280;2023-01-06T13:52:36;101163.78;;;6.37;100.00
62418;BME280;48456;54.242;10.280;2023-01-06T13:55:04;101167.34;;;6.40;100.00
62418;BME280;48456;54.242;10.280;2023-01-06T13:57:32;101157.69;;;6.40;100.00
62418;BME280;48456;54.242;10.280;2023-01-06T14:05:02;101155.03;;;6.37;100.00
62418;BME280;48456;54.242;10.280;2023-01-06T14:07:29;101161.94;;;6.33;100.00
62418;BME280;48456;54.242;10.280;2023-01-06T14:09:56;101162.84;;;6.34;100.00
62418;BME280;48456;54.242;10.280;2023-01-06T14:12:23;101168.00;;;6.29;100.00
62418;BME280;48456;54.242;10.280;2023-01-06T14:14:53;101174.16;;;6.30;100.00
62418;BME280;48456;54.242;10.280;2023-01-06T14:17:37;101180.22;;;6.27;100.00
62418;BME280;48456;54.242;10.280;2023-01-06T14:20:04;101169.69;;;6.26;100.00
62418;BME280;48456;54.242;10.280;2023-01-06T14:22:31;101186.31;;;6.26;100.00
62418;BME280;48456;54.242;10.280;2023-01-06T14:25:00;101180.97;;;6.20;100.00
62418;BME280;48456;54.242;10.280;2023-01-06T14:30:22;101198.56;;;6.24;100.00
62418;BME280;48456;54.242;10.280;2023-01-06T14:35:15;101205.59;;;6.27;100.00
62418;BME280;48456;54.242;10.280;2023-01-06T14:37:44;101204.69;;;6.23;100.00
62418;BME280;48456;54.242;10.280;2023-01-06T14:40:22;101206.34;;;6.19;100.00
62418;BME280;48456;54.242;10.280;2023-01-06T14:42:50;101197.44;;;6.13;100.00
62418;BME280;48456;54.242;10.280;2023-01-06T14:45:19;101205.31;;;6.13;100.00
62418;BME280;48456;54.242;10.280;2023-01-06T14:47:48;101207.91;;;6.11;100.00
62418;BME280;48456;54.242;10.280;2023-01-06T14:50:22;101212.19;;;6.06;100.00
62418;BME280;48456;54.242;10.280;2023-01-06T14:53:01;101208.69;;;6.05;100.00
62418;BME280;48456;54.242;10.280;2023-01-06T14:55:30;101212.22;;;6.07;100.00